sensor_id;sensor_type;location;lat;lon;timestamp;P1;durP1;ratioP1;P2;durP2;ratioP2
69931;SDS011;57243;52.064;5.116;2022-10-13T00:01:47;8.50;;;3.42;;
69931;SDS011;57243;52.064;5.116;2022-10-13T00:04:13;7.18;;;3.13;;
69931;SDS011;57243;52.064;5.116;2022-10-13T00:06:38;5.40;;;2.80;;
69931;SDS011;57243;52.064;5.116;2022-10-13T00:09:04;7.90;;;3.13;;
69931;SDS011;57243;52.064;5.116;2022-10-13T00:11:30;7.67;;;2.97;;
69931;SDS011;57243;52.064;5.116;2022-10-13T00:13:56;6.28;;;3.00;;
69931;SDS011;57243;52.064;5.116;2022-10-13T00:16:25;6.03;;;2.95;;
69931;SDS011;57243;52.064;5.116;2022-10-13T00:18:51;6.13;;;2.70;;
69931;SDS011;57243;52.064;5.116;2022-10-13T00:21:18;5.82;;;2.95;;
69931;SDS011;57243;52.064;5.116;2022-10-13T00:23:46;7.38;;;3.80;;
69931;SDS011;57243;52.064;5.116;2022-10-13T00:26:12;6.90;;;2.90;;
69931;SDS011;57243;52.064;5.116;2022-10-13T00:28:40;7.65;;;3.35;;
69931;SDS011;57243;52.064;5.116;2022-10-13T00:31:16;7.05;;;2.92;;
69931;SDS011;57243;52.064;5.116;2022-10-13T00:33:47;4.45;;;2.83;;
69931;SDS011;57243;52.064;5.116;2022-10-13T00:36:13;7.40;;;2.90;;
69931;SDS011;57243;52.064;5.116;2022-10-13T00:38:40;6.85;;;3.03;;
69931;SDS011;57243;52.064;5.116;2022-10-13T00:41:05;5.70;;;2.90;;
69931;SDS011;57243;52.064;5.116;2022-10-13T00:46:26;6.27;;;3.27;;
69931;SDS011;57243;52.064;5.116;2022-10-13T00:48:57;7.85;;;2.90;;
69931;SDS011;57243;52.064;5.116;2022-10-13T00:51:31;6.22;;;2.50;;
69931;SDS011;57243;52.064;5.116;2022-10-13T00:53:58;6.70;;;2.92;;
69931;SDS011;57243;52.064;5.116;2022-10-13T00:56:25;5.72;;;2.70;;
69931;SDS011;57243;52.064;5.116;2022-10-13T00:58:53;6.33;;;3.20;;
69931;SDS011;57243;52.064;5.116;2022-10-13T01:01:20;4.95;;;2.88;;
69931;SDS011;57243;52.064;5.116;2022-10-13T01:03:46;5.10;;;2.83;;
69931;SDS011;57243;52.064;5.116;2022-10-13T01:06:12;7.90;;;3.13;;
69931;SDS011;57243;52.064;5.116;2022-10-13T01:08:38;5.35;;;2.97;;
69931;SDS011;57243;52.064;5.116;2022-10-13T01:13:45;6.03;;;3.33;;
69931;SDS011;57243;52.064;5.116;2022-10-13T01:31:19;5.85;;;2.63;;
69931;SDS011;57243;52.064;5.116;2022-10-13T01:42:14;6.35;;;2.90;;
69931;SDS011;57243;52.064;5.116;2022-10-13T01:44:45;5.90;;;2.78;;
69931;SDS011;57243;52.064;5.116;2022-10-13T01:47:15;6.33;;;2.93;;
69931;SDS011;57243;52.064;5.116;2022-10-13T01:49:42;7.63;;;2.90;;
69931;SDS011;57243;52.064;5.116;2022-10-13T01:52:11;6.10;;;3.10;;
69931;SDS011;57243;52.064;5.116;2022-10-13T01:54:40;6.60;;;3.08;;
69931;SDS011;57243;52.064;5.116;2022-10-13T01:57:25;6.10;;;2.77;;
69931;SDS011;57243;52.064;5.116;2022-10-13T01:59:59;5.82;;;2.90;;
69931;SDS011;57243;52.064;5.116;2022-10-13T02:02:33;6.13;;;2.88;;
69931;SDS011;57243;52.064;5.116;2022-10-13T02:08:00;7.43;;;3.10;;
69931;SDS011;57243;52.064;5.116;2022-10-13T02:13:14;6.68;;;3.20;;
69931;SDS011;57243;52.064;5.116;2022-10-13T02:15:48;5.32;;;2.88;;
69931;SDS011;57243;52.064;5.116;2022-10-13T02:18:17;5.65;;;2.88;;
69931;SDS011;57243;52.064;5.116;2022-10-13T02:20:47;7.85;;;3.03;;
69931;SDS011;57243;52.064;5.116;2022-10-13T02:23:15;7.78;;;3.13;;
69931;SDS011;57243;52.064;5.116;2022-10-13T02:25:42;6.00;;;3.05;;
69931;SDS011;57243;52.064;5.116;2022-10-13T02:28:10;6.07;;;2.80;;
69931;SDS011;57243;52.064;5.116;2022-10-13T02:30:38;7.38;;;3.05;;
69931;SDS011;57243;52.064;5.116;2022-10-13T02:33:05;6.97;;;2.90;;
69931;SDS011;57243;52.064;5.116;2022-10-13T02:35:32;5.68;;;2.80;;
69931;SDS011;57243;52.064;5.116;2022-10-13T02:37:58;5.78;;;3.40;;
69931;SDS011;57243;52.064;5.116;2022-10-13T02:40:24;6.20;;;2.95;;
69931;SDS011;57243;52.064;5.116;2022-10-13T02:42:50;5.47;;;3.35;;
69931;SDS011;57243;52.064;5.116;2022-10-13T02:45:15;5.80;;;2.90;;
69931;SDS011;57243;52.064;5.116;2022-10-13T02:47:41;6.20;;;3.00;;
69931;SDS011;57243;52.064;5.116;2022-10-13T02:50:07;6.47;;;3.05;;
69931;SDS011;57243;52.064;5.116;2022-10-13T02:52:33;5.72;;;2.80;;
69931;SDS011;57243;52.064;5.116;2022-10-13T02:54:58;6.87;;;3.43;;
69931;SDS011;57243;52.064;5.116;2022-10-13T02:57:24;8.20;;;2.90;;
69931;SDS011;57243;52.064;5.116;2022-10-13T02:59:50;6.40;;;3.10;;
69931;SDS011;57243;52.064;5.116;2022-10-13T03:02:16;4.93;;;2.93;;
69931;SDS011;57243;52.064;5.116;2022-10-13T03:04:42;6.63;;;2.92;;
69931;SDS011;57243;52.064;5.116;2022-10-13T03:07:07;5.57;;;3.00;;
69931;SDS011;57243;52.064;5.116;2022-10-13T03:09:33;5.10;;;2.80;;
69931;SDS011;57243;52.064;5.116;2022-10-13T03:11:58;4.97;;;2.83;;
69931;SDS011;57243;52.064;5.116;2022-10-13T03:14:24;4.85;;;2.85;;
69931;SDS011;57243;52.064;5.116;2022-10-13T03:16:50;7.73;;;3.50;;
69931;SDS011;57243;52.064;5.116;2022-10-13T03:19:15;6.40;;;3.53;;
69931;SDS011;57243;52.064;5.116;2022-10-13T03:21:41;5.13;;;3.10;;
69931;SDS011;57243;52.064;5.116;2022-10-13T03:24:06;5.47;;;3.13;;
69931;SDS011;57243;52.064;5.116;2022-10-13T03:26:32;6.03;;;3.00;;
69931;SDS011;57243;52.064;5.116;2022-10-13T03:28:59;5.53;;;2.80;;
69931;SDS011;57243;52.064;5.116;2022-10-13T03:31:24;5.55;;;3.10;;
69931;SDS011;57243;52.064;5.116;2022-10-13T03:33:50;6.20;;;2.88;;
69931;SDS011;57243;52.064;5.116;2022-10-13T03:36:16;5.00;;;2.80;;
69931;SDS011;57243;52.064;5.116;2022-10-13T03:38:42;6.47;;;3.17;;
69931;SDS011;57243;52.064;5.116;2022-10-13T03:41:17;4.75;;;2.58;;
69931;SDS011;57243;52.064;5.116;2022-10-13T03:43:43;6.22;;;2.95;;
69931;SDS011;57243;52.064;5.116;2022-10-13T03:46:12;9.18;;;2.70;;
69931;SDS011;57243;52.064;5.116;2022-10-13T03:48:40;6.75;;;3.08;;
69931;SDS011;57243;52.064;5.116;2022-10-13T03:51:06;5.40;;;2.83;;
69931;SDS011;57243;52.064;5.116;2022-10-13T03:53:37;5.40;;;3.13;;
69931;SDS011;57243;52.064;5.116;2022-10-13T03:56:03;5.93;;;3.10;;
69931;SDS011;57243;52.064;5.116;2022-10-13T03:58:29;8.95;;;3.15;;
69931;SDS011;57243;52.064;5.116;2022-10-13T04:00:56;8.30;;;3.28;;
69931;SDS011;57243;52.064;5.116;2022-10-13T04:03:25;5.93;;;2.70;;
69931;SDS011;57243;52.064;5.116;2022-10-13T04:05:51;5.17;;;2.70;;
69931;SDS011;57243;52.064;5.116;2022-10-13T04:08:17;4.80;;;2.58;;
69931;SDS011;57243;52.064;5.116;2022-10-13T04:10:42;4.40;;;2.72;;
69931;SDS011;57243;52.064;5.116;2022-10-13T04:13:08;4.50;;;2.47;;
69931;SDS011;57243;52.064;5.116;2022-10-13T04:15:37;6.65;;;2.90;;
69931;SDS011;57243;52.064;5.116;2022-10-13T04:18:04;5.07;;;2.77;;
69931;SDS011;57243;52.064;5.116;2022-10-13T04:20:34;7.20;;;2.85;;
69931;SDS011;57243;52.064;5.116;2022-10-13T04:23:02;9.35;;;3.03;;
69931;SDS011;57243;52.064;5.116;2022-10-13T04:25:27;4.33;;;2.60;;
69931;SDS011;57243;52.064;5.116;2022-10-13T04:27:53;7.13;;;2.78;;
69931;SDS011;57243;52.064;5.116;2022-10-13T04:30:18;6.27;;;2.70;;
69931;SDS011;57243;52.064;5.116;2022-10-13T04:32:44;4.43;;;2.77;;
69931;SDS011;57243;52.064;5.116;2022-10-13T04:35:09;5.90;;;2.75;;
69931;SDS011;57243;52.064;5.116;2022-10-13T04:37:35;6.68;;;2.70;;
69931;SDS011;57243;52.064;5.116;2022-10-13T04:40:00;7.67;;;3.20;;
69931;SDS011;57243;52.064;5.116;2022-10-13T04:42:26;4.57;;;2.70;;
69931;SDS011;57243;52.064;5.116;2022-10-13T04:44:52;6.20;;;2.80;;
69931;SDS011;57243;52.064;5.116;2022-10-13T04:47:17;5.80;;;2.63;;
69931;SDS011;57243;52.064;5.116;2022-10-13T04:49:43;7.72;;;3.05;;
69931;SDS011;57243;52.064;5.116;2022-10-13T04:52:08;4.43;;;2.87;;
69931;SDS011;57243;52.064;5.116;2022-10-13T04:54:34;5.73;;;2.90;;
69931;SDS011;57243;52.064;5.116;2022-10-13T04:56:59;7.20;;;3.13;;
69931;SDS011;57243;52.064;5.116;2022-10-13T04:59:25;11.57;;;3.03;;
69931;SDS011;57243;52.064;5.116;2022-10-13T05:01:51;13.73;;;3.53;;
69931;SDS011;57243;52.064;5.116;2022-10-13T05:04:16;9.73;;;3.03;;
69931;SDS011;57243;52.064;5.116;2022-10-13T05:06:42;7.53;;;2.93;;
69931;SDS011;57243;52.064;5.116;2022-10-13T05:09:08;11.63;;;2.83;;
69931;SDS011;57243;52.064;5.116;2022-10-13T05:11:38;17.02;;;3.15;;
69931;SDS011;57243;52.064;5.116;2022-10-13T05:14:03;13.45;;;3.20;;
69931;SDS011;57243;52.064;5.116;2022-10-13T05:16:29;9.27;;;3.03;;
69931;SDS011;57243;52.064;5.116;2022-10-13T05:18:55;8.60;;;2.90;;
69931;SDS011;57243;52.064;5.116;2022-10-13T05:21:24;7.30;;;3.00;;
69931;SDS011;57243;52.064;5.116;2022-10-13T05:23:52;10.95;;;3.13;;
69931;SDS011;57243;52.064;5.116;2022-10-13T05:26:20;11.63;;;3.30;;
69931;SDS011;57243;52.064;5.116;2022-10-13T05:28:46;7.07;;;2.88;;
69931;SDS011;57243;52.064;5.116;2022-10-13T05:31:13;9.10;;;3.37;;
69931;SDS011;57243;52.064;5.116;2022-10-13T05:33:41;11.82;;;3.33;;
69931;SDS011;57243;52.064;5.116;2022-10-13T05:36:09;9.30;;;3.20;;
69931;SDS011;57243;52.064;5.116;2022-10-13T05:38:39;12.80;;;3.30;;
69931;SDS011;57243;52.064;5.116;2022-10-13T05:41:05;10.52;;;3.50;;
69931;SDS011;57243;52.064;5.116;2022-10-13T05:43:32;6.57;;;3.22;;
69931;SDS011;57243;52.064;5.116;2022-10-13T05:45:58;8.43;;;3.50;;
69931;SDS011;57243;52.064;5.116;2022-10-13T05:48:25;7.40;;;3.47;;
69931;SDS011;57243;52.064;5.116;2022-10-13T05:50:50;7.30;;;2.80;;
69931;SDS011;57243;52.064;5.116;2022-10-13T05:53:16;9.43;;;3.10;;
69931;SDS011;57243;52.064;5.116;2022-10-13T05:55:42;9.10;;;3.40;;
69931;SDS011;57243;52.064;5.116;2022-10-13T05:58:08;9.20;;;3.87;;
69931;SDS011;57243;52.064;5.116;2022-10-13T06:00:33;10.60;;;3.22;;
69931;SDS011;57243;52.064;5.116;2022-10-13T06:03:10;11.02;;;3.13;;
69931;SDS011;57243;52.064;5.116;2022-10-13T06:05:38;9.97;;;3.27;;
69931;SDS011;57243;52.064;5.116;2022-10-13T06:08:07;8.95;;;2.97;;
69931;SDS011;57243;52.064;5.116;2022-10-13T06:10:33;11.35;;;3.35;;
69931;SDS011;57243;52.064;5.116;2022-10-13T06:13:01;8.30;;;2.80;;
69931;SDS011;57243;52.064;5.116;2022-10-13T06:15:26;8.83;;;3.20;;
69931;SDS011;57243;52.064;5.116;2022-10-13T06:17:52;7.80;;;3.25;;
69931;SDS011;57243;52.064;5.116;2022-10-13T06:20:17;7.70;;;3.25;;
69931;SDS011;57243;52.064;5.116;2022-10-13T06:22:44;6.38;;;2.92;;
69931;SDS011;57243;52.064;5.116;2022-10-13T06:25:10;9.98;;;3.67;;
69931;SDS011;57243;52.064;5.116;2022-10-13T06:27:36;6.53;;;2.90;;
69931;SDS011;57243;52.064;5.116;2022-10-13T06:30:01;6.97;;;2.70;;
69931;SDS011;57243;52.064;5.116;2022-10-13T06:32:27;8.32;;;3.15;;
69931;SDS011;57243;52.064;5.116;2022-10-13T06:34:53;6.25;;;2.70;;
69931;SDS011;57243;52.064;5.116;2022-10-13T06:37:19;7.73;;;3.20;;
69931;SDS011;57243;52.064;5.116;2022-10-13T06:39:44;6.57;;;3.40;;
69931;SDS011;57243;52.064;5.116;2022-10-13T06:42:10;6.72;;;2.78;;
69931;SDS011;57243;52.064;5.116;2022-10-13T06:44:36;6.50;;;3.10;;
69931;SDS011;57243;52.064;5.116;2022-10-13T06:47:02;6.07;;;2.70;;
69931;SDS011;57243;52.064;5.116;2022-10-13T06:49:29;5.25;;;2.67;;
69931;SDS011;57243;52.064;5.116;2022-10-13T06:51:55;6.57;;;2.73;;
69931;SDS011;57243;52.064;5.116;2022-10-13T06:54:20;7.50;;;3.20;;
69931;SDS011;57243;52.064;5.116;2022-10-13T06:56:46;6.83;;;2.83;;
69931;SDS011;57243;52.064;5.116;2022-10-13T06:59:12;7.88;;;3.05;;
69931;SDS011;57243;52.064;5.116;2022-10-13T07:01:38;5.10;;;2.90;;
69931;SDS011;57243;52.064;5.116;2022-10-13T07:04:04;6.60;;;2.78;;
69931;SDS011;57243;52.064;5.116;2022-10-13T07:06:30;5.07;;;3.00;;
69931;SDS011;57243;52.064;5.116;2022-10-13T07:08:55;5.97;;;2.80;;
69931;SDS011;57243;52.064;5.116;2022-10-13T07:11:21;6.72;;;3.20;;
69931;SDS011;57243;52.064;5.116;2022-10-13T07:13:47;6.07;;;2.90;;
69931;SDS011;57243;52.064;5.116;2022-10-13T07:16:13;5.93;;;2.92;;
69931;SDS011;57243;52.064;5.116;2022-10-13T07:18:39;5.97;;;3.40;;
69931;SDS011;57243;52.064;5.116;2022-10-13T07:21:04;8.13;;;3.27;;
69931;SDS011;57243;52.064;5.116;2022-10-13T07:23:30;5.40;;;2.70;;
69931;SDS011;57243;52.064;5.116;2022-10-13T07:25:56;5.07;;;2.50;;
69931;SDS011;57243;52.064;5.116;2022-10-13T07:28:22;6.82;;;3.15;;
69931;SDS011;57243;52.064;5.116;2022-10-13T07:30:49;6.38;;;3.20;;
69931;SDS011;57243;52.064;5.116;2022-10-13T07:33:14;5.63;;;2.80;;
69931;SDS011;57243;52.064;5.116;2022-10-13T07:35:40;7.77;;;3.07;;
69931;SDS011;57243;52.064;5.116;2022-10-13T07:38:06;7.18;;;2.97;;
69931;SDS011;57243;52.064;5.116;2022-10-13T07:40:32;6.20;;;2.90;;
69931;SDS011;57243;52.064;5.116;2022-10-13T07:42:59;5.60;;;2.90;;
69931;SDS011;57243;52.064;5.116;2022-10-13T07:45:25;5.70;;;2.88;;
69931;SDS011;57243;52.064;5.116;2022-10-13T07:47:51;8.07;;;3.08;;
69931;SDS011;57243;52.064;5.116;2022-10-13T07:50:17;6.80;;;2.77;;
69931;SDS011;57243;52.064;5.116;2022-10-13T07:52:42;7.70;;;2.80;;
69931;SDS011;57243;52.064;5.116;2022-10-13T07:55:08;7.28;;;2.92;;
69931;SDS011;57243;52.064;5.116;2022-10-13T07:57:34;6.45;;;2.83;;
69931;SDS011;57243;52.064;5.116;2022-10-13T08:00:00;5.43;;;2.73;;
69931;SDS011;57243;52.064;5.116;2022-10-13T08:02:25;5.00;;;2.85;;
69931;SDS011;57243;52.064;5.116;2022-10-13T08:04:51;6.63;;;3.15;;
69931;SDS011;57243;52.064;5.116;2022-10-13T08:07:18;6.35;;;2.97;;
69931;SDS011;57243;52.064;5.116;2022-10-13T08:09:44;5.30;;;2.65;;
69931;SDS011;57243;52.064;5.116;2022-10-13T08:12:09;6.13;;;2.70;;
69931;SDS011;57243;52.064;5.116;2022-10-13T08:14:35;5.10;;;2.70;;
69931;SDS011;57243;52.064;5.116;2022-10-13T08:17:01;6.97;;;2.67;;
69931;SDS011;57243;52.064;5.116;2022-10-13T08:19:27;6.43;;;2.83;;
69931;SDS011;57243;52.064;5.116;2022-10-13T08:21:53;5.60;;;2.73;;
69931;SDS011;57243;52.064;5.116;2022-10-13T08:24:19;5.45;;;3.03;;
69931;SDS011;57243;52.064;5.116;2022-10-13T08:26:46;6.40;;;2.88;;
69931;SDS011;57243;52.064;5.116;2022-10-13T08:29:13;6.72;;;3.03;;
69931;SDS011;57243;52.064;5.116;2022-10-13T08:31:39;7.43;;;2.70;;
69931;SDS011;57243;52.064;5.116;2022-10-13T08:34:06;6.20;;;2.60;;
69931;SDS011;57243;52.064;5.116;2022-10-13T08:36:32;8.05;;;3.00;;
69931;SDS011;57243;52.064;5.116;2022-10-13T08:38:58;5.50;;;2.60;;
69931;SDS011;57243;52.064;5.116;2022-10-13T08:41:27;4.30;;;2.50;;
69931;SDS011;57243;52.064;5.116;2022-10-13T08:43:56;7.20;;;2.83;;
69931;SDS011;57243;52.064;5.116;2022-10-13T08:46:48;4.90;;;2.30;;
69931;SDS011;57243;52.064;5.116;2022-10-13T08:49:23;8.65;;;2.78;;
69931;SDS011;57243;52.064;5.116;2022-10-13T08:51:49;6.65;;;2.75;;
69931;SDS011;57243;52.064;5.116;2022-10-13T08:54:14;4.97;;;2.40;;
69931;SDS011;57243;52.064;5.116;2022-10-13T08:56:43;4.43;;;2.72;;
69931;SDS011;57243;52.064;5.116;2022-10-13T08:59:13;6.00;;;2.67;;
69931;SDS011;57243;52.064;5.116;2022-10-13T09:01:41;10.07;;;3.00;;
69931;SDS011;57243;52.064;5.116;2022-10-13T09:07:01;5.35;;;2.50;;
69931;SDS011;57243;52.064;5.116;2022-10-13T09:09:33;4.20;;;2.40;;
69931;SDS011;57243;52.064;5.116;2022-10-13T09:12:00;6.18;;;2.60;;
69931;SDS011;57243;52.064;5.116;2022-10-13T09:16:54;4.45;;;2.53;;
69931;SDS011;57243;52.064;5.116;2022-10-13T09:21:52;4.78;;;2.30;;
69931;SDS011;57243;52.064;5.116;2022-10-13T09:24:20;5.32;;;2.47;;
69931;SDS011;57243;52.064;5.116;2022-10-13T09:26:47;6.50;;;2.80;;
69931;SDS011;57243;52.064;5.116;2022-10-13T09:29:17;4.93;;;2.42;;
69931;SDS011;57243;52.064;5.116;2022-10-13T09:31:44;5.20;;;2.50;;
69931;SDS011;57243;52.064;5.116;2022-10-13T09:36:54;5.57;;;2.42;;
69931;SDS011;57243;52.064;5.116;2022-10-13T09:39:19;3.50;;;2.30;;
69931;SDS011;57243;52.064;5.116;2022-10-13T09:41:46;4.55;;;2.60;;
69931;SDS011;57243;52.064;5.116;2022-10-13T09:44:13;5.93;;;2.47;;
69931;SDS011;57243;52.064;5.116;2022-10-13T09:46:52;4.15;;;2.17;;
69931;SDS011;57243;52.064;5.116;2022-10-13T10:00:11;3.55;;;2.20;;
69931;SDS011;57243;52.064;5.116;2022-10-13T10:05:27;5.60;;;2.37;;
69931;SDS011;57243;52.064;5.116;2022-10-13T10:07:58;3.85;;;2.13;;
69931;SDS011;57243;52.064;5.116;2022-10-13T10:10:39;4.38;;;2.20;;
69931;SDS011;57243;52.064;5.116;2022-10-13T10:13:09;4.22;;;2.40;;
69931;SDS011;57243;52.064;5.116;2022-10-13T10:15:42;5.20;;;2.42;;
69931;SDS011;57243;52.064;5.116;2022-10-13T10:18:41;4.67;;;2.30;;
69931;SDS011;57243;52.064;5.116;2022-10-13T10:24:25;4.45;;;2.30;;
69931;SDS011;57243;52.064;5.116;2022-10-13T10:27:00;4.90;;;2.30;;
69931;SDS011;57243;52.064;5.116;2022-10-13T10:42:37;4.63;;;2.15;;
69931;SDS011;57243;52.064;5.116;2022-10-13T10:45:29;4.43;;;2.50;;
69931;SDS011;57243;52.064;5.116;2022-10-13T10:48:03;4.63;;;1.90;;
69931;SDS011;57243;52.064;5.116;2022-10-13T10:50:38;4.43;;;2.40;;
69931;SDS011;57243;52.064;5.116;2022-10-13T10:53:19;4.60;;;2.08;;
69931;SDS011;57243;52.064;5.116;2022-10-13T10:56:18;6.80;;;2.70;;
69931;SDS011;57243;52.064;5.116;2022-10-13T11:02:12;5.38;;;2.50;;
69931;SDS011;57243;52.064;5.116;2022-10-13T11:04:51;4.68;;;2.22;;
69931;SDS011;57243;52.064;5.116;2022-10-13T11:17:28;5.10;;;2.60;;
69931;SDS011;57243;52.064;5.116;2022-10-13T11:19:54;4.78;;;2.30;;
69931;SDS011;57243;52.064;5.116;2022-10-13T11:22:23;5.25;;;2.53;;
69931;SDS011;57243;52.064;5.116;2022-10-13T11:24:54;4.38;;;2.25;;
69931;SDS011;57243;52.064;5.116;2022-10-13T11:27:23;3.60;;;2.20;;
69931;SDS011;57243;52.064;5.116;2022-10-13T11:29:59;6.37;;;2.47;;
69931;SDS011;57243;52.064;5.116;2022-10-13T11:42:58;3.40;;;2.30;;
69931;SDS011;57243;52.064;5.116;2022-10-13T11:48:40;5.03;;;2.72;;
69931;SDS011;57243;52.064;5.116;2022-10-13T11:54:05;3.80;;;2.30;;
69931;SDS011;57243;52.064;5.116;2022-10-13T11:56:46;5.03;;;2.20;;
69931;SDS011;57243;52.064;5.116;2022-10-13T12:01:51;5.30;;;2.50;;
69931;SDS011;57243;52.064;5.116;2022-10-13T12:04:22;5.07;;;2.40;;
69931;SDS011;57243;52.064;5.116;2022-10-13T12:07:08;3.58;;;2.00;;
69931;SDS011;57243;52.064;5.116;2022-10-13T12:09:37;5.10;;;2.50;;
69931;SDS011;57243;52.064;5.116;2022-10-13T12:12:17;4.30;;;2.30;;
69931;SDS011;57243;52.064;5.116;2022-10-13T12:14:45;6.07;;;2.65;;
69931;SDS011;57243;52.064;5.116;2022-10-13T12:17:19;4.60;;;2.40;;
69931;SDS011;57243;52.064;5.116;2022-10-13T12:19:57;4.43;;;2.25;;
69931;SDS011;57243;52.064;5.116;2022-10-13T12:22:28;5.10;;;2.40;;
69931;SDS011;57243;52.064;5.116;2022-10-13T12:27:24;6.18;;;2.50;;
69931;SDS011;57243;52.064;5.116;2022-10-13T12:29:51;5.80;;;2.50;;
69931;SDS011;57243;52.064;5.116;2022-10-13T12:32:24;3.90;;;2.30;;
69931;SDS011;57243;52.064;5.116;2022-10-13T12:34:54;4.75;;;2.40;;
69931;SDS011;57243;52.064;5.116;2022-10-13T12:37:31;5.57;;;2.08;;
69931;SDS011;57243;52.064;5.116;2022-10-13T12:39:58;5.25;;;2.65;;
69931;SDS011;57243;52.064;5.116;2022-10-13T12:42:29;4.23;;;2.50;;
69931;SDS011;57243;52.064;5.116;2022-10-13T12:44:56;4.82;;;2.38;;
69931;SDS011;57243;52.064;5.116;2022-10-13T12:47:34;5.18;;;2.72;;
69931;SDS011;57243;52.064;5.116;2022-10-13T12:50:19;4.63;;;2.13;;
69931;SDS011;57243;52.064;5.116;2022-10-13T12:52:45;4.20;;;2.25;;
69931;SDS011;57243;52.064;5.116;2022-10-13T12:55:11;5.43;;;2.50;;
69931;SDS011;57243;52.064;5.116;2022-10-13T12:57:40;4.60;;;2.50;;
69931;SDS011;57243;52.064;5.116;2022-10-13T13:02:53;4.47;;;2.20;;
69931;SDS011;57243;52.064;5.116;2022-10-13T13:07:53;3.60;;;2.28;;
69931;SDS011;57243;52.064;5.116;2022-10-13T13:10:19;4.33;;;2.20;;
69931;SDS011;57243;52.064;5.116;2022-10-13T13:12:45;3.60;;;2.17;;
69931;SDS011;57243;52.064;5.116;2022-10-13T13:15:16;5.00;;;2.40;;
69931;SDS011;57243;52.064;5.116;2022-10-13T13:17:48;4.60;;;2.20;;
69931;SDS011;57243;52.064;5.116;2022-10-13T13:20:29;6.97;;;2.47;;
69931;SDS011;57243;52.064;5.116;2022-10-13T13:22:56;4.60;;;2.50;;
69931;SDS011;57243;52.064;5.116;2022-10-13T13:25:22;3.65;;;2.10;;
69931;SDS011;57243;52.064;5.116;2022-10-13T13:27:49;4.72;;;2.80;;
69931;SDS011;57243;52.064;5.116;2022-10-13T13:30:19;3.92;;;2.35;;
69931;SDS011;57243;52.064;5.116;2022-10-13T13:32:47;5.93;;;2.40;;
69931;SDS011;57243;52.064;5.116;2022-10-13T13:35:12;4.05;;;2.25;;
69931;SDS011;57243;52.064;5.116;2022-10-13T13:37:42;5.30;;;2.20;;
69931;SDS011;57243;52.064;5.116;2022-10-13T13:40:14;5.57;;;2.85;;
69931;SDS011;57243;52.064;5.116;2022-10-13T13:42:44;3.90;;;2.20;;
69931;SDS011;57243;52.064;5.116;2022-10-13T13:45:11;4.45;;;2.20;;
69931;SDS011;57243;52.064;5.116;2022-10-13T13:47:37;5.05;;;2.10;;
69931;SDS011;57243;52.064;5.116;2022-10-13T13:50:03;5.28;;;2.65;;
69931;SDS011;57243;52.064;5.116;2022-10-13T13:52:37;3.85;;;2.50;;
69931;SDS011;57243;52.064;5.116;2022-10-13T13:55:02;3.92;;;2.20;;
69931;SDS011;57243;52.064;5.116;2022-10-13T13:57:28;4.97;;;2.00;;
69931;SDS011;57243;52.064;5.116;2022-10-13T13:59:54;3.60;;;2.20;;
69931;SDS011;57243;52.064;5.116;2022-10-13T14:02:20;3.13;;;2.33;;
69931;SDS011;57243;52.064;5.116;2022-10-13T14:04:46;4.95;;;2.28;;
69931;SDS011;57243;52.064;5.116;2022-10-13T14:07:11;4.53;;;2.30;;
69931;SDS011;57243;52.064;5.116;2022-10-13T14:09:37;3.33;;;2.40;;
69931;SDS011;57243;52.064;5.116;2022-10-13T14:12:03;4.95;;;2.33;;
69931;SDS011;57243;52.064;5.116;2022-10-13T14:14:29;5.83;;;2.50;;
69931;SDS011;57243;52.064;5.116;2022-10-13T14:16:56;3.78;;;2.20;;
69931;SDS011;57243;52.064;5.116;2022-10-13T14:19:25;4.53;;;2.60;;
69931;SDS011;57243;52.064;5.116;2022-10-13T14:21:51;5.30;;;2.70;;
69931;SDS011;57243;52.064;5.116;2022-10-13T14:24:17;5.13;;;2.77;;
69931;SDS011;57243;52.064;5.116;2022-10-13T14:26:43;4.40;;;2.63;;
69931;SDS011;57243;52.064;5.116;2022-10-13T14:29:08;4.87;;;2.50;;
69931;SDS011;57243;52.064;5.116;2022-10-13T14:31:34;5.93;;;2.80;;
69931;SDS011;57243;52.064;5.116;2022-10-13T14:33:59;4.33;;;2.37;;
69931;SDS011;57243;52.064;5.116;2022-10-13T14:36:25;6.95;;;2.85;;
69931;SDS011;57243;52.064;5.116;2022-10-13T14:38:51;4.28;;;2.40;;
69931;SDS011;57243;52.064;5.116;2022-10-13T14:41:18;5.50;;;2.70;;
69931;SDS011;57243;52.064;5.116;2022-10-13T14:43:44;3.67;;;2.17;;
69931;SDS011;57243;52.064;5.116;2022-10-13T14:46:11;6.70;;;2.88;;
69931;SDS011;57243;52.064;5.116;2022-10-13T14:48:37;5.50;;;2.47;;
69931;SDS011;57243;52.064;5.116;2022-10-13T14:51:07;4.15;;;2.33;;
69931;SDS011;57243;52.064;5.116;2022-10-13T14:53:34;5.40;;;2.75;;
69931;SDS011;57243;52.064;5.116;2022-10-13T14:56:01;3.75;;;2.22;;
69931;SDS011;57243;52.064;5.116;2022-10-13T14:58:28;5.03;;;2.63;;
69931;SDS011;57243;52.064;5.116;2022-10-13T15:00:54;5.05;;;2.80;;
69931;SDS011;57243;52.064;5.116;2022-10-13T15:03:20;5.75;;;2.63;;
69931;SDS011;57243;52.064;5.116;2022-10-13T15:05:46;5.90;;;2.58;;
69931;SDS011;57243;52.064;5.116;2022-10-13T15:08:12;4.33;;;2.60;;
69931;SDS011;57243;52.064;5.116;2022-10-13T15:10:38;4.10;;;2.70;;
69931;SDS011;57243;52.064;5.116;2022-10-13T15:13:03;4.90;;;2.60;;
69931;SDS011;57243;52.064;5.116;2022-10-13T15:15:29;6.27;;;2.43;;
69931;SDS011;57243;52.064;5.116;2022-10-13T15:17:55;4.30;;;2.42;;
69931;SDS011;57243;52.064;5.116;2022-10-13T15:20:20;4.50;;;2.30;;
69931;SDS011;57243;52.064;5.116;2022-10-13T15:22:46;4.68;;;2.65;;
69931;SDS011;57243;52.064;5.116;2022-10-13T15:25:12;4.53;;;2.75;;
69931;SDS011;57243;52.064;5.116;2022-10-13T15:27:37;5.25;;;2.50;;
69931;SDS011;57243;52.064;5.116;2022-10-13T15:30:04;5.13;;;2.47;;
69931;SDS011;57243;52.064;5.116;2022-10-13T15:32:31;4.70;;;2.60;;
69931;SDS011;57243;52.064;5.116;2022-10-13T15:34:56;4.63;;;2.50;;
69931;SDS011;57243;52.064;5.116;2022-10-13T15:37:22;4.00;;;2.20;;
69931;SDS011;57243;52.064;5.116;2022-10-13T15:39:47;5.53;;;2.67;;
69931;SDS011;57243;52.064;5.116;2022-10-13T15:42:13;5.80;;;2.53;;
69931;SDS011;57243;52.064;5.116;2022-10-13T15:44:38;3.27;;;2.20;;
69931;SDS011;57243;52.064;5.116;2022-10-13T15:47:04;4.20;;;2.17;;
69931;SDS011;57243;52.064;5.116;2022-10-13T15:49:30;4.10;;;2.58;;
69931;SDS011;57243;52.064;5.116;2022-10-13T15:52:01;4.30;;;2.13;;
69931;SDS011;57243;52.064;5.116;2022-10-13T15:54:27;4.82;;;2.55;;
69931;SDS011;57243;52.064;5.116;2022-10-13T15:56:53;3.97;;;2.33;;
69931;SDS011;57243;52.064;5.116;2022-10-13T15:59:18;5.30;;;2.70;;
69931;SDS011;57243;52.064;5.116;2022-10-13T16:01:44;4.53;;;2.87;;
69931;SDS011;57243;52.064;5.116;2022-10-13T16:04:09;5.90;;;2.72;;
69931;SDS011;57243;52.064;5.116;2022-10-13T16:06:35;3.53;;;2.43;;
69931;SDS011;57243;52.064;5.116;2022-10-13T16:09:01;4.40;;;2.58;;
69931;SDS011;57243;52.064;5.116;2022-10-13T16:11:27;4.93;;;2.37;;
69931;SDS011;57243;52.064;5.116;2022-10-13T16:13:53;4.55;;;2.75;;
69931;SDS011;57243;52.064;5.116;2022-10-13T16:16:18;2.90;;;2.20;;
69931;SDS011;57243;52.064;5.116;2022-10-13T16:18:46;3.30;;;2.15;;
69931;SDS011;57243;52.064;5.116;2022-10-13T16:21:19;4.85;;;2.65;;
69931;SDS011;57243;52.064;5.116;2022-10-13T16:23:46;4.27;;;2.37;;
69931;SDS011;57243;52.064;5.116;2022-10-13T16:26:13;3.55;;;2.20;;
69931;SDS011;57243;52.064;5.116;2022-10-13T16:28:41;4.97;;;2.63;;
69931;SDS011;57243;52.064;5.116;2022-10-13T16:31:08;3.60;;;2.40;;
69931;SDS011;57243;52.064;5.116;2022-10-13T16:33:39;3.77;;;2.37;;
69931;SDS011;57243;52.064;5.116;2022-10-13T16:36:07;3.97;;;2.75;;
69931;SDS011;57243;52.064;5.116;2022-10-13T16:38:34;5.13;;;2.80;;
69931;SDS011;57243;52.064;5.116;2022-10-13T16:41:03;5.43;;;2.60;;
69931;SDS011;57243;52.064;5.116;2022-10-13T16:43:30;3.85;;;2.40;;
69931;SDS011;57243;52.064;5.116;2022-10-13T16:45:56;5.17;;;3.20;;
69931;SDS011;57243;52.064;5.116;2022-10-13T16:48:23;4.25;;;2.53;;